sensor_id;sensor_type;location;lat;lon;timestamp;pressure;altitude;pressure_sealevel;temperature;humidity
38786;BME280;24535;45.508;12.252;2023-12-29T00:02:01;102371.09;;;14.88;59.54
38786;BME280;24535;45.508;12.252;2023-12-29T00:07:31;102363.16;;;14.88;60.39
38786;BME280;24535;45.508;12.252;2023-12-29T00:10:28;102381.72;;;14.88;60.31
38786;BME280;24535;45.508;12.252;2023-12-29T00:16:41;102379.13;;;14.86;60.17
38786;BME280;24535;45.508;12.252;2023-12-29T00:25:00;102374.78;;;14.85;60.36
38786;BME280;24535;45.508;12.252;2023-12-29T00:27:39;102360.84;;;14.81;60.19
38786;BME280;24535;45.508;12.252;2023-12-29T00:30:05;102365.13;;;14.84;60.09
38786;BME280;24535;45.508;12.252;2023-12-29T00:32:30;102363.50;;;14.81;59.66
38786;BME280;24535;45.508;12.252;2023-12-29T00:42:52;102361.63;;;14.83;60.22
38786;BME280;24535;45.508;12.252;2023-12-29T00:45:24;102361.63;;;14.83;60.18
38786;BME280;24535;45.508;12.252;2023-12-29T00:47:50;102352.13;;;14.79;59.90
38786;BME280;24535;45.508;12.252;2023-12-29T00:50:17;102350.16;;;14.83;60.39
38786;BME280;24535;45.508;12.252;2023-12-29T00:52:42;102360.78;;;14.83;60.31
38786;BME280;24535;45.508;12.252;2023-12-29T01:03:43;102356.22;;;14.85;60.30
38786;BME280;24535;45.508;12.252;2023-12-29T01:06:23;102355.53;;;14.81;60.38
38786;BME280;24535;45.508;12.252;2023-12-29T01:08:48;102360.66;;;14.84;60.30
38786;BME280;24535;45.508;12.252;2023-12-29T01:14:05;102348.34;;;14.83;60.15
38786;BME280;24535;45.508;12.252;2023-12-29T01:22:39;102353.56;;;14.85;59.97
38786;BME280;24535;45.508;12.252;2023-12-29T01:25:05;102361.63;;;14.83;59.97
38786;BME280;24535;45.508;12.252;2023-12-29T01:27:41;102344.06;;;14.81;60.55
38786;BME280;24535;45.508;12.252;2023-12-29T01:30:07;102345.78;;;14.82;59.97
38786;BME280;24535;45.508;12.252;2023-12-29T01:32:32;102344.91;;;14.81;60.09
38786;BME280;24535;45.508;12.252;2023-12-29T01:34:58;102346.63;;;14.82;60.39
38786;BME280;24535;45.508;12.252;2023-12-29T01:37:23;102342.94;;;14.85;60.58
38786;BME280;24535;45.508;12.252;2023-12-29T01:39:49;102346.44;;;14.86;59.89
38786;BME280;24535;45.508;12.252;2023-12-29T01:42:15;102335.16;;;14.82;60.48
38786;BME280;24535;45.508;12.252;2023-12-29T01:44:40;102343.03;;;14.83;60.04
38786;BME280;24535;45.508;12.252;2023-12-29T01:47:14;102341.25;;;14.84;60.54
38786;BME280;24535;45.508;12.252;2023-12-29T01:49:52;102342.94;;;14.85;60.37
38786;BME280;24535;45.508;12.252;2023-12-29T01:52:18;102338.66;;;14.82;60.29
38786;BME280;24535;45.508;12.252;2023-12-29T01:54:45;102335.16;;;14.82;60.14
38786;BME280;24535;45.508;12.252;2023-12-29T01:57:11;102337.81;;;14.82;60.76
38786;BME280;24535;45.508;12.252;2023-12-29T01:59:40;102328.03;;;14.82;60.62
38786;BME280;24535;45.508;12.252;2023-12-29T02:02:06;102327.31;;;14.80;60.58
38786;BME280;24535;45.508;12.252;2023-12-29T02:04:33;102313.19;;;14.80;60.44
38786;BME280;24535;45.508;12.252;2023-12-29T02:06:59;102324.53;;;14.82;60.32
38786;BME280;24535;45.508;12.252;2023-12-29T02:09:33;102321.88;;;14.82;61.09
38786;BME280;24535;45.508;12.252;2023-12-29T02:11:59;102312.22;;;14.81;60.60
38786;BME280;24535;45.508;12.252;2023-12-29T02:14:27;102303.31;;;14.82;60.76
38786;BME280;24535;45.508;12.252;2023-12-29T02:17:11;102317.38;;;14.84;60.64
38786;BME280;24535;45.508;12.252;2023-12-29T02:19:52;102311.28;;;14.82;60.51
38786;BME280;24535;45.508;12.252;2023-12-29T02:22:18;102308.63;;;14.82;60.53
38786;BME280;24535;45.508;12.252;2023-12-29T02:24:54;102306.94;;;14.81;60.78
38786;BME280;24535;45.508;12.252;2023-12-29T02:33:38;102300.78;;;14.80;59.99
38786;BME280;24535;45.508;12.252;2023-12-29T02:36:12;102292.91;;;14.79;60.41
38786;BME280;24535;45.508;12.252;2023-12-29T02:44:28;102298.22;;;14.79;60.04
38786;BME280;24535;45.508;12.252;2023-12-29T02:46:54;102292.81;;;14.80;60.00
38786;BME280;24535;45.508;12.252;2023-12-29T02:49:26;102294.63;;;14.80;60.32
38786;BME280;24535;45.508;12.252;2023-12-29T02:52:01;102286.72;;;14.78;60.44
38786;BME280;24535;45.508;12.252;2023-12-29T02:54:26;102286.72;;;14.78;60.02
38786;BME280;24535;45.508;12.252;2023-12-29T02:57:04;102277.16;;;14.76;60.23
38786;BME280;24535;45.508;12.252;2023-12-29T03:07:18;102263.81;;;14.77;60.02
38786;BME280;24535;45.508;12.252;2023-12-29T03:09:50;102267.22;;;14.79;60.48
38786;BME280;24535;45.508;12.252;2023-12-29T03:12:15;102257.66;;;14.77;60.28
38786;BME280;24535;45.508;12.252;2023-12-29T03:18:17;102265.44;;;14.80;59.88
38786;BME280;24535;45.508;12.252;2023-12-29T03:20:42;102250.63;;;14.76;59.99
38786;BME280;24535;45.508;12.252;2023-12-29T03:23:17;102262.84;;;14.78;59.85
38786;BME280;24535;45.508;12.252;2023-12-29T03:25:46;102257.75;;;14.75;60.17
38786;BME280;24535;45.508;12.252;2023-12-29T03:28:11;102253.38;;;14.74;60.11
38786;BME280;24535;45.508;12.252;2023-12-29T03:30:37;102255.84;;;14.77;60.38
38786;BME280;24535;45.508;12.252;2023-12-29T03:38:59;102253.28;;;14.76;60.11
38786;BME280;24535;45.508;12.252;2023-12-29T03:41:24;102250.63;;;14.76;59.89
38786;BME280;24535;45.508;12.252;2023-12-29T03:44:01;102252.34;;;14.77;59.79
38786;BME280;24535;45.508;12.252;2023-12-29T03:46:26;102248.84;;;14.76;60.09
38786;BME280;24535;45.508;12.252;2023-12-29T03:54:49;102248.72;;;14.78;60.10
38786;BME280;24535;45.508;12.252;2023-12-29T03:57:15;102257.66;;;14.77;60.07
38786;BME280;24535;45.508;12.252;2023-12-29T03:59:40;102249.00;;;14.73;59.90
38786;BME280;24535;45.508;12.252;2023-12-29T04:02:06;102250.63;;;14.76;59.81
38786;BME280;24535;45.508;12.252;2023-12-29T04:04:31;102245.41;;;14.74;59.68
38786;BME280;24535;45.508;12.252;2023-12-29T04:07:06;102251.59;;;14.75;59.74
38786;BME280;24535;45.508;12.252;2023-12-29T04:09:54;102251.59;;;14.75;59.75
38786;BME280;24535;45.508;12.252;2023-12-29T04:12:23;102246.28;;;14.75;60.04
38786;BME280;24535;45.508;12.252;2023-12-29T04:19:58;102243.63;;;14.75;59.48
38786;BME280;24535;45.508;12.252;2023-12-29T04:22:23;102231.41;;;14.72;59.67
38786;BME280;24535;45.508;12.252;2023-12-29T04:24:49;102237.38;;;14.76;60.27
38786;BME280;24535;45.508;12.252;2023-12-29T04:27:20;102233.94;;;14.74;59.62
38786;BME280;24535;45.508;12.252;2023-12-29T04:38:17;102241.06;;;14.73;59.80
38786;BME280;24535;45.508;12.252;2023-12-29T04:44:19;102235.75;;;14.73;59.62
38786;BME280;24535;45.508;12.252;2023-12-29T04:46:44;102228.84;;;14.71;59.33
38786;BME280;24535;45.508;12.252;2023-12-29T04:49:20;102227.13;;;14.70;59.71
38786;BME280;24535;45.508;12.252;2023-12-29T04:51:45;102229.78;;;14.70;59.65
38786;BME280;24535;45.508;12.252;2023-12-29T04:54:19;102225.53;;;14.67;59.97
38786;BME280;24535;45.508;12.252;2023-12-29T04:56:47;102226.28;;;14.69;59.56
38786;BME280;24535;45.508;12.252;2023-12-29T04:59:22;102236.88;;;14.69;59.57
38786;BME280;24535;45.508;12.252;2023-12-29T05:01:47;102234.34;;;14.68;59.55
38786;BME280;24535;45.508;12.252;2023-12-29T05:04:19;102235.94;;;14.70;59.22
38786;BME280;24535;45.508;12.252;2023-12-29T05:06:51;102235.06;;;14.70;59.65
38786;BME280;24535;45.508;12.252;2023-12-29T05:09:16;102228.06;;;14.69;59.30
38786;BME280;24535;45.508;12.252;2023-12-29T05:11:45;102227.41;;;14.65;59.59
38786;BME280;24535;45.508;12.252;2023-12-29T05:14:11;102227.22;;;14.68;59.63
38786;BME280;24535;45.508;12.252;2023-12-29T05:16:36;102229.88;;;14.68;59.75
38786;BME280;24535;45.508;12.252;2023-12-29T05:19:12;102237.72;;;14.70;59.49
38786;BME280;24535;45.508;12.252;2023-12-29T05:21:44;102242.19;;;14.69;59.09
38786;BME280;24535;45.508;12.252;2023-12-29T05:24:09;102229.97;;;14.67;59.28
38786;BME280;24535;45.508;12.252;2023-12-29T05:26:36;102236.81;;;14.71;59.27
38786;BME280;24535;45.508;12.252;2023-12-29T05:29:02;102239.53;;;14.69;59.63
38786;BME280;24535;45.508;12.252;2023-12-29T05:31:34;102243.88;;;14.70;58.98
38786;BME280;24535;45.508;12.252;2023-12-29T05:33:59;102242.28;;;14.68;59.65
38786;BME280;24535;45.508;12.252;2023-12-29T05:36:28;102243.13;;;14.68;59.37
38786;BME280;24535;45.508;12.252;2023-12-29T05:38:55;102246.75;;;14.67;58.93
38786;BME280;24535;45.508;12.252;2023-12-29T05:41:20;102245.91;;;14.67;59.29
38786;BME280;24535;45.508;12.252;2023-12-29T05:43:46;102254.72;;;14.67;58.86
38786;BME280;24535;45.508;12.252;2023-12-29T05:46:24;102242.28;;;14.68;59.02
38786;BME280;24535;45.508;12.252;2023-12-29T05:48:49;102245.00;;;14.66;59.13
38786;BME280;24535;45.508;12.252;2023-12-29T05:51:29;102246.75;;;14.67;59.10
38786;BME280;24535;45.508;12.252;2023-12-29T05:53:55;102249.41;;;14.67;59.41
38786;BME280;24535;45.508;12.252;2023-12-29T05:56:30;102255.72;;;14.65;58.52
38786;BME280;24535;45.508;12.252;2023-12-29T05:58:56;102250.44;;;14.65;59.04
38786;BME280;24535;45.508;12.252;2023-12-29T06:09:10;102247.94;;;14.62;59.08
38786;BME280;24535;45.508;12.252;2023-12-29T06:12:04;102249.69;;;14.63;58.76
38786;BME280;24535;45.508;12.252;2023-12-29T06:14:36;102253.19;;;14.63;58.29
38786;BME280;24535;45.508;12.252;2023-12-29T06:17:33;102246.16;;;14.62;58.35
38786;BME280;24535;45.508;12.252;2023-12-29T06:20:22;102250.53;;;14.63;58.15
38786;BME280;24535;45.508;12.252;2023-12-29T06:23:12;102250.53;;;14.63;58.30
38786;BME280;24535;45.508;12.252;2023-12-29T06:25:46;102255.91;;;14.62;58.21
38786;BME280;24535;45.508;12.252;2023-12-29T06:30:59;102260.34;;;14.61;58.38
38786;BME280;24535;45.508;12.252;2023-12-29T06:33:49;102263.97;;;14.60;58.31
38786;BME280;24535;45.508;12.252;2023-12-29T06:36:15;102259.63;;;14.59;58.84
38786;BME280;24535;45.508;12.252;2023-12-29T06:45:28;102266.72;;;14.58;58.22
38786;BME280;24535;45.508;12.252;2023-12-29T06:48:20;102270.28;;;14.57;58.33
38786;BME280;24535;45.508;12.252;2023-12-29T06:50:46;102265.94;;;14.56;58.27
38786;BME280;24535;45.508;12.252;2023-12-29T06:53:12;102275.59;;;14.57;58.66
38786;BME280;24535;45.508;12.252;2023-12-29T07:00:40;102270.56;;;14.53;58.73
38786;BME280;24535;45.508;12.252;2023-12-29T07:03:16;102271.34;;;14.55;58.03
38786;BME280;24535;45.508;12.252;2023-12-29T07:05:41;102271.34;;;14.55;58.57
38786;BME280;24535;45.508;12.252;2023-12-29T07:08:29;102274.00;;;14.55;58.35
38786;BME280;24535;45.508;12.252;2023-12-29T07:10:54;102276.72;;;14.53;58.58
38786;BME280;24535;45.508;12.252;2023-12-29T07:13:26;102276.66;;;14.55;57.97
38786;BME280;24535;45.508;12.252;2023-12-29T07:15:54;102284.69;;;14.53;57.84
38786;BME280;24535;45.508;12.252;2023-12-29T07:18:19;102266.31;;;14.50;57.68
38786;BME280;24535;45.508;12.252;2023-12-29T07:20:45;102272.47;;;14.51;58.12
38786;BME280;24535;45.508;12.252;2023-12-29T07:23:10;102270.66;;;14.51;57.77
38786;BME280;24535;45.508;12.252;2023-12-29T07:25:44;102270.75;;;14.50;58.05
38786;BME280;24535;45.508;12.252;2023-12-29T07:28:10;102276.72;;;14.53;57.54
38786;BME280;24535;45.508;12.252;2023-12-29T07:30:53;102281.19;;;14.53;57.96
38786;BME280;24535;45.508;12.252;2023-12-29T07:33:19;102280.44;;;14.51;57.92
38786;BME280;24535;45.508;12.252;2023-12-29T07:35:44;102276.81;;;14.52;57.11
38786;BME280;24535;45.508;12.252;2023-12-29T07:49:43;102295.56;;;14.49;57.73
38786;BME280;24535;45.508;12.252;2023-12-29T07:57:40;102291.16;;;14.48;56.97
38786;BME280;24535;45.508;12.252;2023-12-29T08:00:06;102297.44;;;14.47;57.70
38786;BME280;24535;45.508;12.252;2023-12-29T08:03:19;102295.69;;;14.46;57.39
38786;BME280;24535;45.508;12.252;2023-12-29T08:05:44;102294.09;;;14.43;56.83
38786;BME280;24535;45.508;12.252;2023-12-29T08:08:11;102307.19;;;14.46;57.54
38786;BME280;24535;45.508;12.252;2023-12-29T08:10:40;102314.34;;;14.44;57.35
38786;BME280;24535;45.508;12.252;2023-12-29T08:13:05;102314.25;;;14.46;57.19
38786;BME280;24535;45.508;12.252;2023-12-29T08:15:34;102306.41;;;14.44;57.63
38786;BME280;24535;45.508;12.252;2023-12-29T08:17:59;102314.34;;;14.44;57.43
38786;BME280;24535;45.508;12.252;2023-12-29T08:20:24;102310.00;;;14.43;57.24
38786;BME280;24535;45.508;12.252;2023-12-29T08:22:50;102313.50;;;14.44;57.35
38786;BME280;24535;45.508;12.252;2023-12-29T08:25:22;102324.88;;;14.46;57.09
38786;BME280;24535;45.508;12.252;2023-12-29T08:27:48;102317.84;;;14.45;57.26
38786;BME280;24535;45.508;12.252;2023-12-29T08:30:14;102324.13;;;14.44;57.05
38786;BME280;24535;45.508;12.252;2023-12-29T08:43:49;102327.50;;;14.46;57.32
38786;BME280;24535;45.508;12.252;2023-12-29T08:46:14;102320.69;;;14.42;57.39
38786;BME280;24535;45.508;12.252;2023-12-29T08:48:39;102325.97;;;14.42;57.28
38786;BME280;24535;45.508;12.252;2023-12-29T08:51:05;102329.53;;;14.42;57.62
38786;BME280;24535;45.508;12.252;2023-12-29T08:53:31;102326.88;;;14.42;57.27
38786;BME280;24535;45.508;12.252;2023-12-29T08:56:03;102333.09;;;14.41;57.34
38786;BME280;24535;45.508;12.252;2023-12-29T08:58:29;102328.72;;;14.40;57.67
38786;BME280;24535;45.508;12.252;2023-12-29T09:00:55;102325.13;;;14.41;57.48
38786;BME280;24535;45.508;12.252;2023-12-29T09:03:32;102338.38;;;14.41;57.09
38786;BME280;24535;45.508;12.252;2023-12-29T09:06:01;102349.69;;;14.45;57.69
38786;BME280;24535;45.508;12.252;2023-12-29T09:08:30;102344.47;;;14.43;57.92
38786;BME280;24535;45.508;12.252;2023-12-29T09:10:59;102350.63;;;14.44;57.35
38786;BME280;24535;45.508;12.252;2023-12-29T09:13:24;102353.28;;;14.44;57.27
38786;BME280;24535;45.508;12.252;2023-12-29T09:15:53;102354.03;;;14.46;57.78
38786;BME280;24535;45.508;12.252;2023-12-29T09:18:25;102351.47;;;14.44;57.97
38786;BME280;24535;45.508;12.252;2023-12-29T09:21:01;102339.16;;;14.43;57.44
38786;BME280;24535;45.508;12.252;2023-12-29T09:23:27;102348.72;;;14.46;57.54
38786;BME280;24535;45.508;12.252;2023-12-29T09:25:55;102352.34;;;14.45;57.27
38786;BME280;24535;45.508;12.252;2023-12-29T09:28:26;102349.59;;;14.46;57.90
38786;BME280;24535;45.508;12.252;2023-12-29T09:30:52;102346.06;;;14.46;57.32
38786;BME280;24535;45.508;12.252;2023-12-29T09:33:21;102360.13;;;14.48;57.65
38786;BME280;24535;45.508;12.252;2023-12-29T09:35:53;102362.69;;;14.49;57.80
38786;BME280;24535;45.508;12.252;2023-12-29T09:38:22;102356.69;;;14.46;57.54
38786;BME280;24535;45.508;12.252;2023-12-29T09:40:48;102356.47;;;14.50;57.83
38786;BME280;24535;45.508;12.252;2023-12-29T09:43:14;102354.91;;;14.46;57.91
38786;BME280;24535;45.508;12.252;2023-12-29T09:45:41;102359.19;;;14.49;57.72
38786;BME280;24535;45.508;12.252;2023-12-29T09:48:23;102358.41;;;14.47;57.79
38786;BME280;24535;45.508;12.252;2023-12-29T09:50:59;102364.44;;;14.50;57.64
38786;BME280;24535;45.508;12.252;2023-12-29T09:53:25;102352.16;;;14.48;57.99
38786;BME280;24535;45.508;12.252;2023-12-29T09:55:54;102363.56;;;14.50;57.80
38786;BME280;24535;45.508;12.252;2023-12-29T09:58:21;102351.19;;;14.50;57.65
38786;BME280;24535;45.508;12.252;2023-12-29T10:03:32;102357.41;;;14.49;57.87
38786;BME280;24535;45.508;12.252;2023-12-29T10:06:06;102363.50;;;14.51;57.98
38786;BME280;24535;45.508;12.252;2023-12-29T10:08:38;102353.13;;;14.47;57.42
38786;BME280;24535;45.508;12.252;2023-12-29T10:11:10;102353.00;;;14.48;57.87
38786;BME280;24535;45.508;12.252;2023-12-29T10:13:38;102355.75;;;14.47;57.54
38786;BME280;24535;45.508;12.252;2023-12-29T10:16:15;102349.59;;;14.46;57.60
38786;BME280;24535;45.508;12.252;2023-12-29T10:19:10;102348.66;;;14.47;57.67
38786;BME280;24535;45.508;12.252;2023-12-29T10:21:51;102345.06;;;14.48;57.62
38786;BME280;24535;45.508;12.252;2023-12-29T10:24:24;102343.34;;;14.47;57.91
38786;BME280;24535;45.508;12.252;2023-12-29T10:27:02;102340.72;;;14.47;57.22
38786;BME280;24535;45.508;12.252;2023-12-29T10:29:31;102337.97;;;14.49;57.41
38786;BME280;24535;45.508;12.252;2023-12-29T10:32:07;102337.38;;;14.44;57.18
38786;BME280;24535;45.508;12.252;2023-12-29T10:34:37;102328.41;;;14.46;58.04
38786;BME280;24535;45.508;12.252;2023-12-29T10:37:09;102329.25;;;14.47;58.11
38786;BME280;24535;45.508;12.252;2023-12-29T10:39:55;102324.78;;;14.47;57.32
38786;BME280;24535;45.508;12.252;2023-12-29T10:42:27;102329.97;;;14.50;57.67
38786;BME280;24535;45.508;12.252;2023-12-29T10:45:20;102327.38;;;14.49;57.59
38786;BME280;24535;45.508;12.252;2023-12-29T10:47:52;102323.78;;;14.50;57.30
38786;BME280;24535;45.508;12.252;2023-12-29T10:50:18;102320.34;;;14.48;57.44
38786;BME280;24535;45.508;12.252;2023-12-29T10:52:43;102322.84;;;14.51;57.34
38786;BME280;24535;45.508;12.252;2023-12-29T10:55:10;102315.13;;;14.46;57.91
38786;BME280;24535;45.508;12.252;2023-12-29T10:57:46;102311.53;;;14.47;57.53
38786;BME280;24535;45.508;12.252;2023-12-29T11:00:45;102305.38;;;14.47;57.18
38786;BME280;24535;45.508;12.252;2023-12-29T11:09:30;102296.41;;;14.49;57.46
38786;BME280;24535;45.508;12.252;2023-12-29T11:12:07;102294.59;;;14.50;57.51
38786;BME280;24535;45.508;12.252;2023-12-29T11:14:43;102292.84;;;14.50;57.76
38786;BME280;24535;45.508;12.252;2023-12-29T11:17:21;102290.19;;;14.50;57.90
38786;BME280;24535;45.508;12.252;2023-12-29T11:19:47;102281.41;;;14.48;57.59
38786;BME280;24535;45.508;12.252;2023-12-29T11:22:51;102282.22;;;14.50;57.56
38786;BME280;24535;45.508;12.252;2023-12-29T11:25:19;102269.88;;;14.49;57.73
38786;BME280;24535;45.508;12.252;2023-12-29T11:27:48;102266.31;;;14.50;57.52
38786;BME280;24535;45.508;12.252;2023-12-29T11:30:20;102260.19;;;14.48;57.67
38786;BME280;24535;45.508;12.252;2023-12-29T11:35:43;102254.66;;;14.53;57.64
38786;BME280;24535;45.508;12.252;2023-12-29T11:42:28;102250.97;;;14.55;57.71
38786;BME280;24535;45.508;12.252;2023-12-29T11:45:37;102247.56;;;14.53;57.43
38786;BME280;24535;45.508;12.252;2023-12-29T11:59:51;102230.78;;;14.53;57.82
38786;BME280;24535;45.508;12.252;2023-12-29T12:02:36;102224.75;;;14.51;57.98
38786;BME280;24535;45.508;12.252;2023-12-29T12:05:02;102218.59;;;14.50;57.81
38786;BME280;24535;45.508;12.252;2023-12-29T12:10:30;102214.97;;;14.51;57.90
38786;BME280;24535;45.508;12.252;2023-12-29T12:13:47;102210.53;;;14.52;57.45
38786;BME280;24535;45.508;12.252;2023-12-29T12:19:39;102209.50;;;14.54;57.32
38786;BME280;24535;45.508;12.252;2023-12-29T12:22:24;102202.69;;;14.50;57.77
38786;BME280;24535;45.508;12.252;2023-12-29T12:25:11;102190.25;;;14.51;57.66
38786;BME280;24535;45.508;12.252;2023-12-29T12:27:38;102188.47;;;14.51;57.98
38786;BME280;24535;45.508;12.252;2023-12-29T12:30:20;102191.13;;;14.51;57.65
38786;BME280;24535;45.508;12.252;2023-12-29T12:32:47;102189.31;;;14.52;57.51
38786;BME280;24535;45.508;12.252;2023-12-29T12:35:22;102183.16;;;14.51;57.30
38786;BME280;24535;45.508;12.252;2023-12-29T12:37:47;102179.56;;;14.52;57.46
38786;BME280;24535;45.508;12.252;2023-12-29T12:40:25;102183.84;;;14.55;57.92
38786;BME280;24535;45.508;12.252;2023-12-29T12:42:51;102179.44;;;14.54;58.07
38786;BME280;24535;45.508;12.252;2023-12-29T12:45:20;102172.38;;;14.54;57.72
38786;BME280;24535;45.508;12.252;2023-12-29T12:47:53;102174.91;;;14.56;58.13
38786;BME280;24535;45.508;12.252;2023-12-29T12:50:20;102174.91;;;14.56;58.02
38786;BME280;24535;45.508;12.252;2023-12-29T12:52:46;102175.78;;;14.56;57.49
38786;BME280;24535;45.508;12.252;2023-12-29T12:55:14;102178.25;;;14.59;57.64
38786;BME280;24535;45.508;12.252;2023-12-29T12:58:02;102165.06;;;14.58;57.38
38786;BME280;24535;45.508;12.252;2023-12-29T13:00:40;102161.28;;;14.62;57.68
38786;BME280;24535;45.508;12.252;2023-12-29T13:03:57;102157.19;;;14.56;57.47
38786;BME280;24535;45.508;12.252;2023-12-29T13:09:09;102150.94;;;14.57;57.80
38786;BME280;24535;45.508;12.252;2023-12-29T13:11:41;102164.88;;;14.61;57.33
38786;BME280;24535;45.508;12.252;2023-12-29T13:14:06;102165.84;;;14.60;57.34
38786;BME280;24535;45.508;12.252;2023-12-29T13:16:34;102152.84;;;14.55;57.57
38786;BME280;24535;45.508;12.252;2023-12-29T13:19:23;102159.84;;;14.56;57.24
38786;BME280;24535;45.508;12.252;2023-12-29T13:21:56;102159.75;;;14.58;57.40
38786;BME280;24535;45.508;12.252;2023-12-29T13:24:23;102151.91;;;14.56;57.51
38786;BME280;24535;45.508;12.252;2023-12-29T13:26:51;102150.09;;;14.57;57.81
38786;BME280;24535;45.508;12.252;2023-12-29T13:29:21;102161.56;;;14.57;56.64
38786;BME280;24535;45.508;12.252;2023-12-29T13:31:59;102154.44;;;14.58;57.26
38786;BME280;24535;45.508;12.252;2023-12-29T13:34:49;102153.53;;;14.59;57.63
38786;BME280;24535;45.508;12.252;2023-12-29T13:40:03;102153.53;;;14.59;57.46
38786;BME280;24535;45.508;12.252;2023-12-29T13:48:20;102146.31;;;14.61;57.74
38786;BME280;24535;45.508;12.252;2023-12-29T13:50:58;102148.78;;;14.64;57.39
38786;BME280;24535;45.508;12.252;2023-12-29T13:54:17;102140.81;;;14.64;57.34
38786;BME280;24535;45.508;12.252;2023-12-29T13:59:38;102133.91;;;14.62;57.35
38786;BME280;24535;45.508;12.252;2023-12-29T14:05:35;102149.53;;;14.66;57.59
38786;BME280;24535;45.508;12.252;2023-12-29T14:23:10;102139.13;;;14.63;57.11
38786;BME280;24535;45.508;12.252;2023-12-29T14:41:42;102140.34;;;14.57;57.36
38786;BME280;24535;45.508;12.252;2023-12-29T15:04:39;102143.09;;;14.56;57.19
38786;BME280;24535;45.508;12.252;2023-12-29T15:16:40;102129.84;;;14.56;57.76
38786;BME280;24535;45.508;12.252;2023-12-29T16:20:06;102118.66;;;14.51;57.18
38786;BME280;24535;45.508;12.252;2023-12-29T16:25:33;102115.16;;;14.50;57.98
38786;BME280;24535;45.508;12.252;2023-12-29T16:28:24;102119.59;;;14.50;57.93
38786;BME280;24535;45.508;12.252;2023-12-29T17:12:24;102104.44;;;14.52;58.21
38786;BME280;24535;45.508;12.252;2023-12-29T17:44:28;102114.09;;;14.53;57.87
38786;BME280;24535;45.508;12.252;2023-12-29T20:08:34;102097.44;;;14.51;57.69
38786;BME280;24535;45.508;12.252;2023-12-29T20:27:50;102076.38;;;14.48;57.91
38786;BME280;24535;45.508;12.252;2023-12-29T20:30:16;102086.16;;;14.47;57.87
38786;BME280;24535;45.508;12.252;2023-12-29T20:32:42;102084.34;;;14.48;57.75
38786;BME280;24535;45.508;12.252;2023-12-29T20:35:08;102086.16;;;14.47;57.83
38786;BME280;24535;45.508;12.252;2023-12-29T20:37:33;102085.31;;;14.47;58.00
38786;BME280;24535;45.508;12.252;2023-12-29T20:39:59;102083.41;;;14.49;57.42
38786;BME280;24535;45.508;12.252;2023-12-29T21:10:12;102071.00;;;14.49;58.39
38786;BME280;24535;45.508;12.252;2023-12-29T21:16:00;102067.66;;;14.46;57.81
38786;BME280;24535;45.508;12.252;2023-12-29T21:22:29;102068.53;;;14.46;58.19
38786;BME280;24535;45.508;12.252;2023-12-29T21:32:05;102072.88;;;14.47;58.14
38786;BME280;24535;45.508;12.252;2023-12-29T21:34:31;102065.13;;;14.44;57.65
38786;BME280;24535;45.508;12.252;2023-12-29T21:36:56;102076.56;;;14.45;58.02
38786;BME280;24535;45.508;12.252;2023-12-29T21:39:25;102070.41;;;14.44;57.80
38786;BME280;24535;45.508;12.252;2023-12-29T21:41:50;102070.31;;;14.46;57.81
38786;BME280;24535;45.508;12.252;2023-12-29T21:44:19;102072.13;;;14.45;58.16
38786;BME280;24535;45.508;12.252;2023-12-29T21:46:45;102072.97;;;14.46;57.74
38786;BME280;24535;45.508;12.252;2023-12-29T21:49:10;102081.81;;;14.46;57.93
38786;BME280;24535;45.508;12.252;2023-12-29T21:51:36;102073.06;;;14.44;57.83
38786;BME280;24535;45.508;12.252;2023-12-29T21:54:01;102073.84;;;14.46;57.55
38786;BME280;24535;45.508;12.252;2023-12-29T21:56:26;102082.53;;;14.48;57.99
38786;BME280;24535;45.508;12.252;2023-12-29T21:58:52;102076.31;;;14.49;58.13
38786;BME280;24535;45.508;12.252;2023-12-29T22:01:34;102071.84;;;14.50;57.50
38786;BME280;24535;45.508;12.252;2023-12-29T22:04:03;102056.03;;;14.48;57.95
38786;BME280;24535;45.508;12.252;2023-12-29T22:06:31;102060.41;;;14.49;57.84
38786;BME280;24535;45.508;12.252;2023-12-29T22:08:57;102064.09;;;14.47;57.87
38786;BME280;24535;45.508;12.252;2023-12-29T22:11:23;102073.66;;;14.49;57.68
38786;BME280;24535;45.508;12.252;2023-12-29T22:13:49;102068.34;;;14.49;57.55
38786;BME280;24535;45.508;12.252;2023-12-29T22:16:15;102065.78;;;14.48;57.57
38786;BME280;24535;45.508;12.252;2023-12-29T22:18:41;102064.78;;;14.50;57.93
38786;BME280;24535;45.508;12.252;2023-12-29T22:21:07;102064.84;;;14.49;57.62
38786;BME280;24535;45.508;12.252;2023-12-29T22:23:32;102061.31;;;14.48;57.77
38786;BME280;24535;45.508;12.252;2023-12-29T22:25:58;102055.94;;;14.50;57.46
38786;BME280;24535;45.508;12.252;2023-12-29T22:28:23;102058.59;;;14.50;57.43
38786;BME280;24535;45.508;12.252;2023-12-29T22:30:49;102058.59;;;14.50;57.71
38786;BME280;24535;45.508;12.252;2023-12-29T22:33:14;102062.28;;;14.47;57.51
38786;BME280;24535;45.508;12.252;2023-12-29T22:35:40;102057.75;;;14.49;57.56
38786;BME280;24535;45.508;12.252;2023-12-29T22:38:05;102056.81;;;14.50;57.60
38786;BME280;24535;45.508;12.252;2023-12-29T22:40:31;102057.69;;;14.51;57.38
38786;BME280;24535;45.508;12.252;2023-12-29T22:42:58;102052.38;;;14.51;58.17
38786;BME280;24535;45.508;12.252;2023-12-29T22:45:24;102047.16;;;14.49;57.35
38786;BME280;24535;45.508;12.252;2023-12-29T22:47:51;102054.19;;;14.50;57.67
38786;BME280;24535;45.508;12.252;2023-12-29T22:50:17;102048.00;;;14.50;57.46